JBM2EZ EHRD-EDDH
Flight info
| Callsign | JBM2EZ |
|---|---|
| Flight time | 0h 52m |
| Altitude | 35000 |
| Route | ANDIK M105 RIBSO RIBSO7A |
| Aircraft | B738/M-SDE2E3FGHIRWXY/LB1 |
Departure
| Time | 2026-04-21 22:41 |
|---|---|
| Airport | Rotterdam The Hague Airport (EHRD) |
Arrival
| Time | 2026-04-21 23:34 |
|---|---|
| Airport | Hamburg Helmut Schmidt Airport (EDDH) |
| Time | Latitude | Longitude | Altitude | Speed | Heading |
|---|---|---|---|---|---|
| 2026-04-21 22:12 | 51.95142 | 4.43293 | 0 ft | 0 kts | 327° |
| 2026-04-21 22:39 | 51.95147 | 4.43287 | 0 ft | 3 kts | 327° |
| 2026-04-21 22:39 | 51.95172 | 4.43255 | 0 ft | 6 kts | 298° |
| 2026-04-21 22:39 | 51.95156 | 4.43180 | 1 ft | 8 kts | 241° |
| 2026-04-21 22:39 | 51.95131 | 4.43100 | 0 ft | 8 kts | 245° |
| 2026-04-21 22:40 | 51.95110 | 4.43022 | 0 ft | 8 kts | 252° |
| 2026-04-21 22:40 | 51.95120 | 4.42943 | 0 ft | 8 kts | 309° |
| 2026-04-21 22:40 | 51.95173 | 4.42885 | 0 ft | 10 kts | 327° |
| 2026-04-21 22:40 | 51.95240 | 4.42902 | 1 ft | 12 kts | 51° |
| 2026-04-21 22:41 | 51.95342 | 4.43156 | 1 ft | 59 kts | 57° |
| 2026-04-21 22:41 | 51.95702 | 4.44053 | 0 ft | 129 kts | 57° |
| 2026-04-21 22:41 | 51.96284 | 4.45484 | 288 ft | 162 kts | 56° |
| 2026-04-21 22:41 | 51.96870 | 4.46953 | 1429 ft | 148 kts | 58° |
| 2026-04-21 22:42 | 51.97419 | 4.48399 | 2087 ft | 164 kts | 60° |
| 2026-04-21 22:42 | 51.98002 | 4.50109 | 2397 ft | 182 kts | 63° |
| 2026-04-21 22:42 | 51.98584 | 4.52014 | 2659 ft | 197 kts | 64° |
| 2026-04-21 22:42 | 51.99211 | 4.54080 | 2921 ft | 210 kts | 64° |
| 2026-04-21 22:43 | 51.99893 | 4.56202 | 3360 ft | 217 kts | 58° |
| 2026-04-21 22:43 | 52.01042 | 4.57969 | 3580 ft | 241 kts | 33° |
| 2026-04-21 22:43 | 52.02578 | 4.59208 | 4076 ft | 252 kts | 27° |
| 2026-04-21 22:43 | 52.04186 | 4.60372 | 4791 ft | 252 kts | 27° |
| 2026-04-21 22:44 | 52.05679 | 4.61790 | 5502 ft | 250 kts | 43° |
| 2026-04-21 22:44 | 52.06872 | 4.63835 | 6049 ft | 253 kts | 51° |
| 2026-04-21 22:44 | 52.08037 | 4.65943 | 6810 ft | 254 kts | 49° |
| 2026-04-21 22:44 | 52.09266 | 4.68056 | 7369 ft | 259 kts | 48° |
| 2026-04-21 22:45 | 52.10519 | 4.70178 | 8063 ft | 261 kts | 48° |
| 2026-04-21 22:45 | 52.11787 | 4.72315 | 8767 ft | 263 kts | 48° |
| 2026-04-21 22:45 | 52.13065 | 4.74472 | 9471 ft | 266 kts | 48° |
| 2026-04-21 22:45 | 52.14354 | 4.76653 | 10186 ft | 269 kts | 48° |
| 2026-04-21 22:46 | 52.15667 | 4.78875 | 10700 ft | 279 kts | 48° |
| 2026-04-21 22:46 | 52.17061 | 4.81243 | 10855 ft | 301 kts | 48° |
| 2026-04-21 22:46 | 52.18541 | 4.83757 | 11026 ft | 320 kts | 48° |
| 2026-04-21 22:46 | 52.20109 | 4.86420 | 11487 ft | 329 kts | 48° |
| 2026-04-21 22:47 | 52.21616 | 4.88977 | 12135 ft | 331 kts | 48° |
| 2026-04-21 22:47 | 52.23223 | 4.91705 | 12826 ft | 334 kts | 48° |
| 2026-04-21 22:47 | 52.24843 | 4.94463 | 13503 ft | 338 kts | 48° |
| 2026-04-21 22:47 | 52.26480 | 4.97254 | 14188 ft | 342 kts | 48° |
| 2026-04-21 22:48 | 52.28133 | 5.00075 | 14804 ft | 346 kts | 48° |
| 2026-04-21 22:48 | 52.29796 | 5.02916 | 15453 ft | 348 kts | 48° |
| 2026-04-21 22:48 | 52.31454 | 5.05754 | 16099 ft | 352 kts | 48° |
| 2026-04-21 22:48 | 52.33256 | 5.08491 | 16739 ft | 358 kts | 36° |
| 2026-04-21 22:49 | 52.35517 | 5.10263 | 17398 ft | 365 kts | 20° |
| 2026-04-21 22:49 | 52.37977 | 5.11401 | 18050 ft | 369 kts | 18° |
| 2026-04-21 22:49 | 52.40473 | 5.12453 | 18673 ft | 373 kts | 17° |
| 2026-04-21 22:49 | 52.43001 | 5.13503 | 19185 ft | 378 kts | 17° |
| 2026-04-21 22:50 | 52.45561 | 5.14581 | 19716 ft | 381 kts | 17° |
| 2026-04-21 22:50 | 52.48140 | 5.15688 | 20256 ft | 384 kts | 18° |
| 2026-04-21 22:50 | 52.50700 | 5.16803 | 20808 ft | 387 kts | 18° |
| 2026-04-21 22:50 | 52.53306 | 5.17948 | 21321 ft | 390 kts | 18° |
| 2026-04-21 22:51 | 52.55942 | 5.19114 | 21842 ft | 393 kts | 18° |
| 2026-04-21 22:51 | 52.58591 | 5.20288 | 22338 ft | 397 kts | 18° |
| 2026-04-21 22:51 | 52.61270 | 5.21477 | 22843 ft | 400 kts | 18° |
| 2026-04-21 22:51 | 52.63962 | 5.22672 | 23340 ft | 403 kts | 18° |
| 2026-04-21 22:52 | 52.66580 | 5.23836 | 23822 ft | 405 kts | 18° |
| 2026-04-21 22:52 | 52.69306 | 5.25051 | 24248 ft | 408 kts | 18° |
| 2026-04-21 22:52 | 52.71896 | 5.26856 | 24630 ft | 405 kts | 36° |
| 2026-04-21 22:52 | 52.73961 | 5.29894 | 25053 ft | 402 kts | 52° |
| 2026-04-21 22:53 | 52.75440 | 5.33777 | 25468 ft | 401 kts | 68° |
| 2026-04-21 22:53 | 52.76439 | 5.38084 | 25844 ft | 403 kts | 71° |
| 2026-04-21 22:53 | 52.77365 | 5.42460 | 26200 ft | 406 kts | 71° |
| 2026-04-21 22:53 | 52.78278 | 5.46888 | 26557 ft | 409 kts | 72° |
| 2026-04-21 22:54 | 52.79197 | 5.51337 | 26943 ft | 410 kts | 71° |
| 2026-04-21 22:54 | 52.80129 | 5.55808 | 27302 ft | 413 kts | 71° |
| 2026-04-21 22:54 | 52.81076 | 5.60305 | 27642 ft | 415 kts | 71° |
| 2026-04-21 22:54 | 52.82033 | 5.64823 | 27976 ft | 418 kts | 71° |
| 2026-04-21 22:55 | 52.82997 | 5.69360 | 28309 ft | 420 kts | 71° |
| 2026-04-21 22:55 | 52.83955 | 5.73868 | 28620 ft | 422 kts | 71° |
| 2026-04-21 22:55 | 52.84931 | 5.78465 | 28950 ft | 424 kts | 71° |
| 2026-04-21 22:55 | 52.85909 | 5.83080 | 29291 ft | 426 kts | 71° |
| 2026-04-21 22:56 | 52.86886 | 5.87696 | 29742 ft | 424 kts | 71° |
| 2026-04-21 22:56 | 52.87857 | 5.92299 | 30256 ft | 422 kts | 71° |
| 2026-04-21 22:56 | 52.88819 | 5.96867 | 30658 ft | 421 kts | 71° |
| 2026-04-21 22:56 | 52.89784 | 6.01463 | 30888 ft | 423 kts | 71° |
| 2026-04-21 22:57 | 52.90750 | 6.06081 | 31113 ft | 426 kts | 71° |
| 2026-04-21 22:57 | 52.91719 | 6.10713 | 31397 ft | 427 kts | 71° |
| 2026-04-21 22:57 | 52.92691 | 6.15375 | 31700 ft | 427 kts | 71° |
| 2026-04-21 22:57 | 52.93648 | 6.19973 | 31953 ft | 428 kts | 71° |
| 2026-04-21 22:58 | 52.94620 | 6.24655 | 32198 ft | 430 kts | 71° |
| 2026-04-21 22:58 | 52.95592 | 6.29353 | 32483 ft | 431 kts | 71° |
| 2026-04-21 22:58 | 52.96563 | 6.34053 | 32778 ft | 431 kts | 71° |
| 2026-04-21 22:58 | 52.97532 | 6.38757 | 33042 ft | 432 kts | 71° |
| 2026-04-21 22:59 | 52.98503 | 6.43478 | 33324 ft | 432 kts | 71° |
| 2026-04-21 22:59 | 52.99470 | 6.48195 | 33588 ft | 433 kts | 71° |
| 2026-04-21 22:59 | 53.00439 | 6.52932 | 33831 ft | 433 kts | 71° |
| 2026-04-21 22:59 | 53.01408 | 6.57677 | 34093 ft | 434 kts | 71° |
| 2026-04-21 23:00 | 53.02362 | 6.62356 | 34348 ft | 435 kts | 71° |
| 2026-04-21 23:00 | 53.03329 | 6.67117 | 34543 ft | 436 kts | 71° |
| 2026-04-21 23:00 | 53.04295 | 6.71886 | 34791 ft | 435 kts | 71° |
| 2026-04-21 23:00 | 53.05260 | 6.76658 | 35013 ft | 435 kts | 70° |
| 2026-04-21 23:01 | 53.06222 | 6.81426 | 35223 ft | 435 kts | 71° |
| 2026-04-21 23:01 | 53.07182 | 6.86200 | 35339 ft | 435 kts | 70° |
| 2026-04-21 23:01 | 53.08131 | 6.90935 | 35235 ft | 429 kts | 71° |
| 2026-04-21 23:01 | 53.09065 | 6.95598 | 34962 ft | 421 kts | 71° |
| 2026-04-21 23:02 | 53.09981 | 7.00182 | 34588 ft | 417 kts | 71° |
| 2026-04-21 23:02 | 53.10877 | 7.04682 | 34210 ft | 413 kts | 71° |
| 2026-04-21 23:02 | 53.11778 | 7.09206 | 33776 ft | 410 kts | 71° |
| 2026-04-21 23:02 | 53.12668 | 7.13687 | 33394 ft | 405 kts | 71° |
| 2026-04-21 23:03 | 53.13545 | 7.18120 | 33016 ft | 401 kts | 71° |
| 2026-04-21 23:03 | 53.14402 | 7.22500 | 32738 ft | 394 kts | 72° |
| 2026-04-21 23:03 | 53.15240 | 7.26809 | 32469 ft | 388 kts | 72° |
| 2026-04-21 23:03 | 53.16064 | 7.31056 | 32159 ft | 383 kts | 72° |
| 2026-04-21 23:04 | 53.16877 | 7.35258 | 31797 ft | 379 kts | 72° |
| 2026-04-21 23:04 | 53.17683 | 7.39407 | 31552 ft | 373 kts | 72° |
| 2026-04-21 23:04 | 53.18469 | 7.43440 | 31203 ft | 369 kts | 72° |
| 2026-04-21 23:04 | 53.19258 | 7.47492 | 30892 ft | 365 kts | 71° |
| 2026-04-21 23:05 | 53.20039 | 7.51507 | 30532 ft | 362 kts | 72° |
| 2026-04-21 23:05 | 53.20810 | 7.55488 | 30143 ft | 359 kts | 72° |
| 2026-04-21 23:05 | 53.21573 | 7.59432 | 29795 ft | 354 kts | 72° |
| 2026-04-21 23:05 | 53.22321 | 7.63303 | 29584 ft | 346 kts | 72° |
| 2026-04-21 23:06 | 53.23055 | 7.67099 | 29239 ft | 342 kts | 72° |
| 2026-04-21 23:06 | 53.23780 | 7.70852 | 28898 ft | 337 kts | 72° |
| 2026-04-21 23:06 | 53.24495 | 7.74554 | 28573 ft | 333 kts | 72° |
| 2026-04-21 23:06 | 53.25200 | 7.78218 | 28226 ft | 330 kts | 72° |
| 2026-04-21 23:07 | 53.25888 | 7.81798 | 27889 ft | 327 kts | 72° |
| 2026-04-21 23:07 | 53.26578 | 7.85395 | 27571 ft | 323 kts | 72° |
| 2026-04-21 23:07 | 53.27261 | 7.88957 | 27224 ft | 320 kts | 72° |
| 2026-04-21 23:07 | 53.27935 | 7.92489 | 26902 ft | 317 kts | 72° |
| 2026-04-21 23:08 | 53.28601 | 7.95984 | 26576 ft | 315 kts | 72° |
| 2026-04-21 23:08 | 53.29261 | 7.99450 | 26262 ft | 311 kts | 72° |
| 2026-04-21 23:08 | 53.29913 | 8.02887 | 25941 ft | 309 kts | 72° |
| 2026-04-21 23:08 | 53.30560 | 8.06296 | 25619 ft | 307 kts | 72° |
| 2026-04-21 23:09 | 53.31203 | 8.09692 | 25305 ft | 304 kts | 72° |
| 2026-04-21 23:09 | 53.31837 | 8.13046 | 25002 ft | 302 kts | 72° |
| 2026-04-21 23:09 | 53.32459 | 8.16347 | 24703 ft | 300 kts | 72° |
| 2026-04-21 23:09 | 53.33143 | 8.19624 | 24447 ft | 297 kts | 69° |
| 2026-04-21 23:10 | 53.33886 | 8.22839 | 24146 ft | 297 kts | 69° |
| 2026-04-21 23:10 | 53.34640 | 8.26048 | 23833 ft | 297 kts | 69° |
| 2026-04-21 23:10 | 53.35405 | 8.29311 | 23494 ft | 304 kts | 69° |
| 2026-04-21 23:10 | 53.36184 | 8.32659 | 23146 ft | 311 kts | 69° |
| 2026-04-21 23:11 | 53.36963 | 8.36026 | 22835 ft | 309 kts | 69° |
| 2026-04-21 23:11 | 53.37730 | 8.39356 | 22525 ft | 305 kts | 69° |
| 2026-04-21 23:11 | 53.38479 | 8.42622 | 22210 ft | 302 kts | 69° |
| 2026-04-21 23:11 | 53.39227 | 8.45889 | 21889 ft | 299 kts | 69° |
| 2026-04-21 23:12 | 53.39959 | 8.49095 | 21584 ft | 296 kts | 69° |
| 2026-04-21 23:12 | 53.40720 | 8.52281 | 21295 ft | 293 kts | 67° |
| 2026-04-21 23:12 | 53.41545 | 8.55385 | 20994 ft | 290 kts | 66° |
| 2026-04-21 23:12 | 53.42382 | 8.58449 | 20702 ft | 287 kts | 66° |
| 2026-04-21 23:13 | 53.43211 | 8.61484 | 20388 ft | 285 kts | 66° |
| 2026-04-21 23:13 | 53.44030 | 8.64495 | 20112 ft | 283 kts | 66° |
| 2026-04-21 23:13 | 53.44840 | 8.67487 | 19803 ft | 281 kts | 66° |
| 2026-04-21 23:13 | 53.45641 | 8.70459 | 19521 ft | 279 kts | 66° |
| 2026-04-21 23:14 | 53.46426 | 8.73379 | 19235 ft | 277 kts | 66° |
| 2026-04-21 23:14 | 53.47213 | 8.76319 | 18942 ft | 275 kts | 66° |
| 2026-04-21 23:14 | 53.47995 | 8.79245 | 18657 ft | 274 kts | 66° |
| 2026-04-21 23:14 | 53.48771 | 8.82153 | 18332 ft | 272 kts | 66° |
| 2026-04-21 23:15 | 53.49537 | 8.85028 | 18044 ft | 269 kts | 66° |
| 2026-04-21 23:15 | 53.50296 | 8.87879 | 17774 ft | 266 kts | 66° |
| 2026-04-21 23:15 | 53.51048 | 8.90706 | 17476 ft | 264 kts | 66° |
| 2026-04-21 23:15 | 53.51793 | 8.93513 | 17194 ft | 263 kts | 66° |
| 2026-04-21 23:16 | 53.52539 | 8.96330 | 16912 ft | 265 kts | 66° |
| 2026-04-21 23:16 | 53.53309 | 8.99175 | 16630 ft | 272 kts | 62° |
| 2026-04-21 23:16 | 53.54426 | 9.01728 | 16342 ft | 277 kts | 46° |
| 2026-04-21 23:16 | 53.55916 | 9.03770 | 16047 ft | 276 kts | 38° |
| 2026-04-21 23:17 | 53.57484 | 9.05625 | 15745 ft | 275 kts | 37° |
| 2026-04-21 23:17 | 53.59042 | 9.07435 | 15457 ft | 273 kts | 37° |
| 2026-04-21 23:17 | 53.60604 | 9.09255 | 15170 ft | 271 kts | 37° |
| 2026-04-21 23:17 | 53.62142 | 9.11061 | 14886 ft | 269 kts | 38° |
| 2026-04-21 23:18 | 53.63670 | 9.12866 | 14611 ft | 267 kts | 38° |
| 2026-04-21 23:18 | 53.65164 | 9.14641 | 14332 ft | 266 kts | 38° |
| 2026-04-21 23:18 | 53.66674 | 9.16436 | 14029 ft | 265 kts | 38° |
| 2026-04-21 23:18 | 53.68173 | 9.18226 | 13732 ft | 264 kts | 38° |
| 2026-04-21 23:19 | 53.69664 | 9.20009 | 13454 ft | 261 kts | 38° |
| 2026-04-21 23:19 | 53.71124 | 9.21792 | 13159 ft | 258 kts | 44° |
| 2026-04-21 23:19 | 53.72090 | 9.24265 | 12856 ft | 253 kts | 74° |
| 2026-04-21 23:19 | 53.72252 | 9.27227 | 12339 ft | 261 kts | 95° |
| 2026-04-21 23:20 | 53.71684 | 9.30194 | 11846 ft | 272 kts | 117° |
| 2026-04-21 23:20 | 53.70418 | 9.32575 | 11484 ft | 279 kts | 142° |
| 2026-04-21 23:20 | 53.68638 | 9.33823 | 11154 ft | 286 kts | 165° |
| 2026-04-21 23:20 | 53.66598 | 9.34142 | 10629 ft | 297 kts | 175° |
| 2026-04-21 23:21 | 53.64550 | 9.34120 | 10284 ft | 292 kts | 178° |
| 2026-04-21 23:21 | 53.62557 | 9.34038 | 10011 ft | 287 kts | 178° |
| 2026-04-21 23:21 | 53.60561 | 9.33973 | 9700 ft | 286 kts | 177° |
| 2026-04-21 23:21 | 53.58571 | 9.33930 | 9375 ft | 285 kts | 177° |
| 2026-04-21 23:22 | 53.56613 | 9.33908 | 9076 ft | 283 kts | 176° |
| 2026-04-21 23:22 | 53.54646 | 9.33897 | 8787 ft | 281 kts | 176° |
| 2026-04-21 23:22 | 53.52697 | 9.33893 | 8500 ft | 279 kts | 176° |
| 2026-04-21 23:22 | 53.50789 | 9.33894 | 8227 ft | 277 kts | 176° |
| 2026-04-21 23:23 | 53.48866 | 9.33897 | 7954 ft | 275 kts | 176° |
| 2026-04-21 23:23 | 53.46970 | 9.33900 | 7680 ft | 273 kts | 176° |
| 2026-04-21 23:23 | 53.45076 | 9.33902 | 7419 ft | 270 kts | 176° |
| 2026-04-21 23:23 | 53.43204 | 9.33901 | 7157 ft | 268 kts | 176° |
| 2026-04-21 23:24 | 53.41402 | 9.34388 | 6888 ft | 259 kts | 153° |
| 2026-04-21 23:24 | 53.39918 | 9.35973 | 6663 ft | 251 kts | 136° |
| 2026-04-21 23:24 | 53.38600 | 9.37856 | 6402 ft | 248 kts | 136° |
| 2026-04-21 23:24 | 53.37336 | 9.39742 | 6161 ft | 238 kts | 128° |
| 2026-04-21 23:25 | 53.36622 | 9.42073 | 5894 ft | 225 kts | 99° |
| 2026-04-21 23:25 | 53.36614 | 9.44629 | 5667 ft | 219 kts | 78° |
| 2026-04-21 23:25 | 53.37216 | 9.46953 | 5230 ft | 226 kts | 51° |
| 2026-04-21 23:25 | 53.38320 | 9.48833 | 4853 ft | 224 kts | 49° |
| 2026-04-21 23:26 | 53.39348 | 9.50752 | 4571 ft | 218 kts | 51° |
| 2026-04-21 23:26 | 53.40309 | 9.52663 | 4350 ft | 209 kts | 52° |
| 2026-04-21 23:26 | 53.41141 | 9.54542 | 4264 ft | 193 kts | 59° |
| 2026-04-21 23:26 | 53.41757 | 9.56463 | 4172 ft | 183 kts | 68° |
| 2026-04-21 23:27 | 53.42481 | 9.58047 | 4096 ft | 188 kts | 42° |
| 2026-04-21 23:27 | 53.43511 | 9.59503 | 4026 ft | 194 kts | 46° |
| 2026-04-21 23:27 | 53.44449 | 9.61128 | 3825 ft | 197 kts | 51° |
| 2026-04-21 23:27 | 53.45346 | 9.62851 | 3623 ft | 195 kts | 52° |
| 2026-04-21 23:28 | 53.46211 | 9.64580 | 3416 ft | 191 kts | 53° |
| 2026-04-21 23:28 | 53.47048 | 9.66278 | 3220 ft | 188 kts | 53° |
| 2026-04-21 23:28 | 53.47879 | 9.67971 | 3080 ft | 187 kts | 53° |
| 2026-04-21 23:28 | 53.48716 | 9.69681 | 3043 ft | 191 kts | 53° |
| 2026-04-21 23:29 | 53.49535 | 9.71355 | 3018 ft | 179 kts | 53° |
| 2026-04-21 23:29 | 53.50300 | 9.72915 | 2999 ft | 170 kts | 53° |
| 2026-04-21 23:29 | 53.51039 | 9.74419 | 3019 ft | 168 kts | 54° |
| 2026-04-21 23:29 | 53.51781 | 9.75932 | 3033 ft | 168 kts | 54° |
| 2026-04-21 23:30 | 53.52522 | 9.77446 | 3024 ft | 168 kts | 54° |
| 2026-04-21 23:30 | 53.53272 | 9.78974 | 2889 ft | 171 kts | 53° |
| 2026-04-21 23:30 | 53.54034 | 9.80526 | 2657 ft | 172 kts | 53° |
| 2026-04-21 23:30 | 53.54786 | 9.82054 | 2424 ft | 167 kts | 54° |
| 2026-04-21 23:31 | 53.55516 | 9.83540 | 2180 ft | 162 kts | 54° |
| 2026-04-21 23:31 | 53.56217 | 9.84968 | 1956 ft | 154 kts | 53° |
| 2026-04-21 23:31 | 53.56861 | 9.86278 | 1781 ft | 139 kts | 54° |
| 2026-04-21 23:31 | 53.57449 | 9.87473 | 1597 ft | 131 kts | 53° |
| 2026-04-21 23:32 | 53.58021 | 9.88636 | 1409 ft | 127 kts | 53° |
| 2026-04-21 23:32 | 53.58573 | 9.89777 | 1221 ft | 125 kts | 53° |
| 2026-04-21 23:32 | 53.59130 | 9.90901 | 1020 ft | 127 kts | 52° |
| 2026-04-21 23:32 | 53.59700 | 9.92072 | 805 ft | 131 kts | 51° |
| 2026-04-21 23:33 | 53.60305 | 9.93298 | 633 ft | 140 kts | 50° |
| 2026-04-21 23:33 | 53.60946 | 9.94576 | 417 ft | 144 kts | 51° |
| 2026-04-21 23:33 | 53.61576 | 9.95869 | 208 ft | 146 kts | 51° |
| 2026-04-21 23:33 | 53.62218 | 9.97168 | 59 ft | 142 kts | 51° |
| 2026-04-21 23:34 | 53.62791 | 9.98321 | 42 ft | 111 kts | 51° |
| 2026-04-21 23:34 | 53.63192 | 9.99135 | 46 ft | 64 kts | 50° |
| 2026-04-21 23:34 | 53.63287 | 9.99552 | 46 ft | 27 kts | 99° |
| 2026-04-21 23:34 | 53.63279 | 9.99642 | 47 ft | 0 kts | 99° |
| 2026-04-21 23:35 | 53.63278 | 9.99649 | 47 ft | 4 kts | 99° |
| 2026-04-21 23:35 | 53.63247 | 9.99744 | 47 ft | 15 kts | 147° |
| 2026-04-21 23:35 | 53.63151 | 9.99821 | 47 ft | 8 kts | 153° |
| 2026-04-21 23:35 | 53.63134 | 9.99835 | 47 ft | 8 kts | 153° |
| 2026-04-21 23:36 | 53.62992 | 9.99960 | 47 ft | 22 kts | 152° |
| 2026-04-21 23:36 | 53.62873 | 10.00026 | 47 ft | 18 kts | 198° |
| 2026-04-21 23:36 | 53.62770 | 9.99927 | 44 ft | 17 kts | 210° |
| 2026-04-21 23:36 | 53.62668 | 9.99833 | 44 ft | 16 kts | 213° |
| 2026-04-21 23:37 | 53.62632 | 9.99714 | 46 ft | 8 kts | 261° |
| 2026-04-21 23:37 | 53.62646 | 9.99632 | 45 ft | 8 kts | 312° |
| 2026-04-21 23:37 | 53.62721 | 9.99563 | 46 ft | 16 kts | 333° |
| 2026-04-21 23:37 | 53.62807 | 9.99489 | 46 ft | 10 kts | 333° |
| 2026-04-21 23:38 | 53.62816 | 9.99415 | 46 ft | 7 kts | 238° |
| 2026-04-21 23:38 | 53.62797 | 9.99355 | 46 ft | 2 kts | 243° |
| 2026-04-21 23:38 | 53.62795 | 9.99351 | 46 ft | 0 kts | 243° |